x

Lake Winnipeg S. Basin (45140) Wave Buoy

9:00am - Fri 26th Aug 2016 All times are UTC.

  • Sig Wave height 1.0ft
  • Peak Period 2s
  • Wind
    13mph
  • Sea Temp 70°f
  • Air Temp 65°f
  • Sea Pressure 1016.5mb

More Historic Weather Station data

Upgrade to MSW Pro to gain access to the past 30 days of data for over 8000 Wavebouys and Weather Stations around the globe.

Join Pro

Comparision Forecast

View Surf forecast
   
Fri 08/26 9:00am 1ft 2s 13
mph
1016.5mb 70f 65f
7:00am 1ft 2s 11 13 mph 1016.5mb 70f 66f
6:00am 0.7ft 2s 11
mph
1016.6mb 70f 66f
5:00am 0.3ft 2s 11 16 mph 1016.5mb 70f 66f
4:00am 0.3ft 2s 4 7 mph 1016.2mb 70f 67f
3:00am 0.3ft 2s 4
mph
1016.2mb 70f 67f
1:00am 0.7ft 2s 2 4 mph 1016mb 70f 67f
Thu 08/25 8:00pm 1ft 3s 7 9 mph 1015.8mb 71f 64f
7:00pm 1.3ft 3s 7 9 mph 1015.7mb 70f 63f
5:00pm 2.5ft 4s 13 18 mph 1015.5mb 69f 62f
4:00pm 2.5ft 4s 16 18 mph 1015mb 70f 62f
3:00pm 3ft 4s 18 22 mph 1014.4mb 70f 61f
1:00pm 3.5ft 4s 20 27 mph 1013.4mb 70f 60f
12:00pm 3.5ft 4s 22 27 mph 1013mb 70f 60f
11:00am 3.5ft 5s 22 27 mph 1012.4mb 70f 60f
10:00am 3.5ft 4s 25 29 mph 1011.6mb 70f 60f
8:00am  -   -  22
mph
1010.9mb 70f 60f
6:00am  -   -  18
mph
- - -
5:00am 2.5ft 4s 18 22 mph 1010.2mb 70f 61f
3:00am 2ft 3s 16 18 mph 1010.1mb 70f 63f
2:00am 1.6ft 3s 16
mph
1009.2mb 71f 65f
1:00am  -   -  18
mph
- - 66f
Wed 08/24 11:00pm 1.3ft 3s 11 13 mph 1008.5mb 71f 71f
10:00pm 1ft 2s 13 16 mph 1007.8mb 72f 71f
9:00pm 0.3ft 2s 11 16 mph 1007.8mb 73f 72f
8:00pm 0.3ft 2s 4 7 mph 1007.8mb 73f 70f
7:00pm 0.3ft 2s 4 7 mph 1007.7mb 75f 69f
6:00pm 0.3ft 2s 2 4 mph 1007.8mb 73f 68f
5:00pm 0.7ft 3s 2 4 mph 1007.6mb 71f 67f
4:00pm 0.7ft 2s 4 7 mph 1007.6mb 70f 66f
3:00pm 0.7ft 2s 4 7 mph 1006.9mb 70f 66f
2:00pm 0.7ft 3s 4
mph
1006.5mb 70f 66f
1:00pm 0.7ft 3s 4
mph
1006.3mb 70f 66f
12:00pm 0.7ft 3s 7 9 mph 1006.3mb 70f 67f
11:00am 1ft 3s 7 9 mph 1006.2mb 70f 67f
10:00am 1ft 2s 9 11 mph 1006mb 70f 66f
8:00am 1.3ft 3s 11 13 mph 1005.6mb 70f 68f
4:00am 2.5ft 4s 13 16 mph 1004.7mb 70f 68f
Tue 08/23 9:00pm  -   -  22
mph
1005.3mb - 70f
8:00pm 1ft 3s 16 20 mph 1006mb 70f 71f
6:00pm 2.5ft 3s 9 11 mph 1005.6mb 70f 72f
1:00pm  -   -  16
mph
1005.2mb 70f 69f
10:00am  -   -  13
mph
1028mb - -
8:00am 1ft 2s 13 18 mph 1005.4mb 71f 71f
5:00am 0.3ft 2s 7 9 mph 1005.7mb 71f 73f
12:00am 0.3ft 2s 11 13 mph 1003.9mb 73f 75f
Mon 08/22 11:00pm 0.3ft 2s 9 11 mph 1003.8mb 74f 75f
10:00pm 0.3ft 3s 4 7 mph 1003.5mb 74f 77f
9:00pm 0.7ft 3s 4
mph
1003.7mb 73f 75f
8:00pm 1ft 3s 4
mph
1003.6mb 72f 74f
7:00pm 1.3ft 3s 7
mph
1003.8mb 71f 72f
6:00pm 1.6ft 4s 9 11 mph 1003.9mb 70f 71f
5:00pm 2.5ft 4s 13 16 mph 1003.7mb 70f 70f
4:00pm 3ft 4s 16 18 mph 1003.9mb 70f 69f
3:00pm 3ft 4s 20 25 mph 1003.8mb 70f 68f
2:00pm 3.5ft 4s 22 27 mph 1003.9mb 70f 67f
1:00pm 3ft 4s 22 25 mph 1003.9mb 70f 67f
12:00pm 2.5ft 4s 22 27 mph 1004.1mb 70f 68f
11:00am 2.5ft 4s 20 22 mph 1004.3mb 70f 67f